Time;durP1;ratioP1;P1;durP2;ratioP2;P2;SDS_P1;SDS_P2;PMS_P1;PMS_P2;Temp;Humidity;BMP_temperature;BMP_pressure;BME280_temperature;BME280_humidity;BME280_pressure;Samples;Min_cycle;Max_cycle;Signal;HPM_P1;HPM_P2
2022/03/29 00:01:37;;;;;;;;;;;7.70;99.90;;;;;;5009077;28;19928;-73
2022/03/29 00:04:03;;;;;;;;;;;7.70;99.90;;;;;;4993149;28;19921;-73
2022/03/29 00:06:28;;;;;;;;;;;7.80;99.90;;;;;;4992973;28;20022;-73
2022/03/29 00:08:55;;;;;;;;;;;7.80;99.90;;;;;;5009161;28;19921;-73
2022/03/29 00:11:21;;;;;;;;;;;7.90;99.90;;;;;;4992826;28;19928;-73
2022/03/29 00:13:47;;;;;;;;;;;7.90;99.90;;;;;;4991745;28;19921;-73
2022/03/29 00:16:12;;;;;;;;;;;8.00;99.90;;;;;;5008880;28;20377;-74
2022/03/29 00:18:38;;;;;;;;;;;7.90;99.90;;;;;;4992664;28;20004;-73
2022/03/29 00:21:03;;;;;;;;;;;8.00;99.90;;;;;;5009549;28;19917;-73
2022/03/29 00:23:29;;;;;;;;;;;8.00;99.90;;;;;;5008831;28;19917;-73
2022/03/29 00:25:54;;;;;;;;;;;7.80;99.90;;;;;;5007949;28;19932;-73
2022/03/29 00:28:20;;;;;;;;;;;7.80;99.90;;;;;;5008892;28;20364;-72
2022/03/29 00:30:46;;;;;;;;;;;7.80;99.90;;;;;;5008726;28;20389;-72
2022/03/29 00:33:11;;;;;;;;;;;7.70;99.90;;;;;;5010111;28;19921;-72
2022/03/29 00:35:38;;;;;;;;;;;7.70;99.90;;;;;;5010214;28;19940;-72
2022/03/29 00:38:04;;;;;;;;;;;7.60;99.90;;;;;;4977040;28;19917;-73
2022/03/29 00:40:29;;;;;;;;;;;7.60;99.90;;;;;;4992242;28;19918;-71
2022/03/29 00:42:55;;;;;;;;;;;7.70;99.90;;;;;;4991790;28;19948;-72
2022/03/29 00:45:21;;;;;;;;;;;7.70;99.90;;;;;;5005584;28;19918;-73
2022/03/29 00:47:47;;;;;;;;;;;7.70;99.90;;;;;;5007916;28;20008;-72
2022/03/29 00:50:12;;;;;;;;;;;7.70;99.90;;;;;;4992148;28;20408;-73
2022/03/29 00:52:38;;;;;;;;;;;7.90;99.90;;;;;;5009023;28;20396;-72
2022/03/29 00:55:05;;;;;;;;;;;7.80;99.90;;;;;;4992830;28;19924;-72
2022/03/29 00:57:32;;;;;;;;;;;7.80;99.90;;;;;;4992354;28;19917;-73
2022/03/29 00:59:58;;;;;;;;;;;7.80;99.90;;;;;;4992105;28;20011;-73
2022/03/29 01:02:24;;;;;;;;;;;7.80;99.90;;;;;;4989631;28;19980;-73
2022/03/29 01:04:50;;;;;;;;;;;7.80;99.90;;;;;;4994214;28;19921;-73
2022/03/29 01:07:15;;;;;;;;;;;7.80;99.90;;;;;;5012498;28;20285;-72
2022/03/29 01:09:41;;;;;;;;;;;7.80;99.90;;;;;;5012280;28;19917;-72
2022/03/29 01:12:08;;;;;;;;;;;7.90;99.90;;;;;;5014154;28;19925;-71
2022/03/29 01:14:34;;;;;;;;;;;7.80;99.90;;;;;;4995774;28;20288;-72
2022/03/29 01:19:45;;;;;;;;;;;8.00;99.90;;;;;;4993951;28;19928;-72
2022/03/29 01:22:11;;;;;;;;;;;7.90;99.90;;;;;;4994472;28;20449;-72
2022/03/29 01:24:40;;;;;;;;;;;7.80;99.90;;;;;;5012316;28;19921;-73
2022/03/29 01:27:07;;;;;;;;;;;7.70;99.90;;;;;;5013529;28;19918;-73
2022/03/29 01:29:33;;;;;;;;;;;7.70;99.90;;;;;;4995448;28;19917;-73
2022/03/29 01:32:02;;;;;;;;;;;7.70;99.90;;;;;;4995695;28;19921;-73
2022/03/29 01:34:28;;;;;;;;;;;7.90;99.90;;;;;;5013018;28;19921;-73
2022/03/29 01:36:54;;;;;;;;;;;7.60;99.90;;;;;;5013305;28;20255;-73
2022/03/29 01:39:20;;;;;;;;;;;7.60;99.90;;;;;;4995805;28;19995;-72
2022/03/29 01:41:46;;;;;;;;;;;7.60;99.90;;;;;;4995874;28;19917;-72
2022/03/29 01:44:12;;;;;;;;;;;7.70;99.90;;;;;;4995758;28;20287;-72
2022/03/29 01:46:38;;;;;;;;;;;7.60;99.90;;;;;;5012311;28;20287;-73
2022/03/29 01:49:04;;;;;;;;;;;7.70;99.90;;;;;;5014720;28;19925;-73
2022/03/29 01:51:30;;;;;;;;;;;7.60;99.90;;;;;;5014775;28;19921;-72
2022/03/29 01:53:57;;;;;;;;;;;7.60;99.90;;;;;;5015262;28;20292;-72
2022/03/29 01:56:26;;;;;;;;;;;7.60;99.90;;;;;;5014548;28;20051;-73
2022/03/29 01:58:51;;;;;;;;;;;7.70;99.90;;;;;;5014759;28;19924;-72
2022/03/29 02:01:17;;;;;;;;;;;7.60;99.90;;;;;;5014415;28;19920;-73
2022/03/29 02:03:42;;;;;;;;;;;7.50;99.90;;;;;;5014966;28;19928;-73
2022/03/29 02:06:08;;;;;;;;;;;7.50;99.90;;;;;;4993202;28;19918;-73
2022/03/29 02:08:34;;;;;;;;;;;7.40;99.90;;;;;;4995184;28;19921;-73
2022/03/29 02:11:00;;;;;;;;;;;7.40;99.90;;;;;;4993678;28;19925;-72
2022/03/29 02:13:26;;;;;;;;;;;7.50;99.90;;;;;;4994779;28;19921;-72
2022/03/29 02:15:51;;;;;;;;;;;7.60;99.90;;;;;;4995240;28;19917;-72
2022/03/29 02:18:17;;;;;;;;;;;7.60;99.90;;;;;;4978654;28;20008;-73
2022/03/29 02:20:43;;;;;;;;;;;7.50;99.90;;;;;;5011730;28;20373;-73
2022/03/29 02:23:09;;;;;;;;;;;7.50;99.90;;;;;;5011021;28;19917;-73
2022/03/29 02:25:35;;;;;;;;;;;7.40;99.90;;;;;;4994820;28;19917;-73
2022/03/29 02:28:01;;;;;;;;;;;7.40;99.90;;;;;;5010986;28;19986;-73
2022/03/29 02:30:26;;;;;;;;;;;7.30;99.90;;;;;;4994338;28;19917;-72
2022/03/29 02:32:52;;;;;;;;;;;7.40;99.90;;;;;;5010599;28;19976;-73
2022/03/29 02:35:18;;;;;;;;;;;7.40;99.90;;;;;;4994504;28;19918;-73
2022/03/29 02:37:43;;;;;;;;;;;7.40;99.90;;;;;;4994648;28;19917;-73
2022/03/29 02:40:09;;;;;;;;;;;7.40;99.90;;;;;;5011399;28;19926;-73
2022/03/29 02:42:42;;;;;;;;;;;7.30;99.90;;;;;;4994351;28;19971;-73
2022/03/29 02:45:09;;;;;;;;;;;7.40;99.90;;;;;;5012104;28;19940;-73
2022/03/29 02:47:35;;;;;;;;;;;7.40;99.90;;;;;;5011605;28;19917;-73
2022/03/29 02:50:00;;;;;;;;;;;7.30;99.90;;;;;;5011947;28;19917;-73
2022/03/29 02:52:26;;;;;;;;;;;7.30;99.90;;;;;;4994439;28;19921;-73
2022/03/29 02:54:52;;;;;;;;;;;7.30;99.90;;;;;;5010326;28;19924;-72
2022/03/29 02:57:17;;;;;;;;;;;7.30;99.90;;;;;;4994417;28;19925;-72
2022/03/29 02:59:45;;;;;;;;;;;7.20;99.90;;;;;;5010450;28;19924;-73
2022/03/29 03:02:11;;;;;;;;;;;7.30;99.90;;;;;;4994198;28;20405;-73
2022/03/29 03:04:37;;;;;;;;;;;7.30;99.90;;;;;;4993704;28;19971;-73
2022/03/29 03:07:02;;;;;;;;;;;7.30;99.90;;;;;;5010840;28;19924;-71
2022/03/29 03:09:28;;;;;;;;;;;7.30;99.90;;;;;;4993717;28;19932;-72
2022/03/29 03:11:55;;;;;;;;;;;7.30;99.90;;;;;;5010134;28;19980;-72
2022/03/29 03:14:20;;;;;;;;;;;7.40;99.90;;;;;;4993644;28;19928;-73
2022/03/29 03:16:46;;;;;;;;;;;7.40;99.90;;;;;;5010568;28;19918;-73
2022/03/29 03:19:12;;;;;;;;;;;7.30;99.90;;;;;;4993901;28;20008;-72
2022/03/29 03:21:37;;;;;;;;;;;7.30;99.90;;;;;;4994102;28;20336;-72
2022/03/29 03:24:03;;;;;;;;;;;7.30;99.90;;;;;;5013395;28;19925;-72
2022/03/29 03:26:29;;;;;;;;;;;7.40;99.90;;;;;;5012565;28;19924;-72
2022/03/29 03:28:54;;;;;;;;;;;7.40;99.90;;;;;;5012922;28;20408;-73
2022/03/29 03:31:20;;;;;;;;;;;7.40;99.90;;;;;;5012970;28;20725;-71
2022/03/29 03:33:45;;;;;;;;;;;7.40;99.90;;;;;;5013836;28;19917;-73
2022/03/29 03:36:11;;;;;;;;;;;7.30;99.90;;;;;;5013506;28;19997;-73
2022/03/29 03:38:37;;;;;;;;;;;7.40;99.90;;;;;;5012600;28;19925;-73
2022/03/29 03:41:02;;;;;;;;;;;7.40;99.90;;;;;;5013010;28;19979;-73
2022/03/29 03:43:28;;;;;;;;;;;7.40;99.90;;;;;;5012622;28;20016;-72
2022/03/29 03:45:53;;;;;;;;;;;7.40;99.90;;;;;;5012912;28;19917;-73
2022/03/29 03:48:19;;;;;;;;;;;7.40;99.90;;;;;;5013167;28;20365;-73
2022/03/29 03:50:45;;;;;;;;;;;7.40;99.90;;;;;;5012422;28;19954;-72
2022/03/29 03:53:11;;;;;;;;;;;7.40;99.90;;;;;;5012646;28;20401;-72
2022/03/29 03:55:37;;;;;;;;;;;7.40;99.90;;;;;;5012384;28;19917;-72
2022/03/29 03:58:02;;;;;;;;;;;7.50;99.90;;;;;;5012590;28;19924;-74
2022/03/29 04:00:28;;;;;;;;;;;7.50;99.90;;;;;;5012316;28;19956;-73
2022/03/29 04:02:54;;;;;;;;;;;7.50;99.90;;;;;;5012029;28;20418;-73
2022/03/29 04:05:21;;;;;;;;;;;7.50;99.90;;;;;;5012773;28;20015;-72
2022/03/29 04:07:47;;;;;;;;;;;7.50;99.90;;;;;;5011682;28;20007;-72
2022/03/29 04:10:12;;;;;;;;;;;7.40;99.90;;;;;;5012282;28;20011;-73
2022/03/29 04:12:38;;;;;;;;;;;7.40;99.90;;;;;;5012058;28;19927;-72
2022/03/29 04:15:04;;;;;;;;;;;7.40;99.90;;;;;;5012545;28;19971;-73
2022/03/29 04:17:31;;;;;;;;;;;7.40;99.90;;;;;;5012084;28;19932;-73
2022/03/29 04:19:58;;;;;;;;;;;7.50;99.90;;;;;;5012422;28;19925;-72
2022/03/29 04:22:23;;;;;;;;;;;7.50;99.90;;;;;;5012440;28;19917;-72
2022/03/29 04:24:49;;;;;;;;;;;7.50;99.90;;;;;;4996427;28;19924;-73
2022/03/29 04:27:14;;;;;;;;;;;7.50;99.90;;;;;;5012464;28;19917;-73
2022/03/29 04:29:40;;;;;;;;;;;7.50;99.90;;;;;;5011707;28;19924;-73
2022/03/29 04:32:06;;;;;;;;;;;7.50;99.90;;;;;;5012684;28;19928;-72
2022/03/29 04:34:32;;;;;;;;;;;7.40;99.90;;;;;;5012112;28;19917;-72
2022/03/29 04:36:59;;;;;;;;;;;7.40;99.90;;;;;;5012348;28;20288;-71
2022/03/29 04:39:24;;;;;;;;;;;7.50;99.90;;;;;;5011239;28;19968;-73
2022/03/29 04:41:50;;;;;;;;;;;7.50;99.90;;;;;;5012208;28;20026;-72
2022/03/29 04:44:15;;;;;;;;;;;7.50;99.90;;;;;;5012139;28;19923;-72
2022/03/29 04:46:41;;;;;;;;;;;7.50;99.90;;;;;;5011916;28;19917;-72
2022/03/29 04:49:07;;;;;;;;;;;7.50;99.90;;;;;;5012440;28;19921;-72
2022/03/29 04:51:35;;;;;;;;;;;7.40;99.90;;;;;;5011884;28;19921;-73
2022/03/29 04:54:01;;;;;;;;;;;7.40;99.90;;;;;;5012474;28;20289;-77
2022/03/29 04:56:27;;;;;;;;;;;7.40;99.90;;;;;;5011822;28;19999;-73
2022/03/29 04:58:53;;;;;;;;;;;7.40;99.90;;;;;;5012668;28;20489;-74
2022/03/29 05:01:18;;;;;;;;;;;7.40;99.90;;;;;;5012587;28;19917;-72
2022/03/29 05:03:44;;;;;;;;;;;7.40;99.90;;;;;;5030103;28;20407;-72
2022/03/29 05:06:10;;;;;;;;;;;7.30;99.90;;;;;;5030557;28;19924;-72
2022/03/29 05:08:35;;;;;;;;;;;7.30;99.90;;;;;;5012358;28;19917;-73
2022/03/29 05:11:01;;;;;;;;;;;7.30;99.90;;;;;;5012504;28;19917;-72
2022/03/29 05:13:28;;;;;;;;;;;7.30;99.90;;;;;;5012894;28;19921;-73
2022/03/29 05:15:53;;;;;;;;;;;7.30;99.90;;;;;;5012885;28;19940;-73
2022/03/29 05:18:19;;;;;;;;;;;7.40;99.90;;;;;;5012407;28;19917;-73
2022/03/29 05:20:45;;;;;;;;;;;7.40;99.90;;;;;;5029712;28;20038;-72
2022/03/29 05:23:10;;;;;;;;;;;7.40;99.90;;;;;;5012399;28;20768;-72
2022/03/29 05:25:36;;;;;;;;;;;7.30;99.90;;;;;;5012243;28;20324;-72
2022/03/29 05:28:02;;;;;;;;;;;7.40;99.90;;;;;;5012246;28;19920;-72
2022/03/29 05:30:27;;;;;;;;;;;7.40;99.90;;;;;;4990284;28;19963;-72
2022/03/29 05:33:00;;;;;;;;;;;7.40;99.90;;;;;;4990746;28;19922;-72
2022/03/29 05:35:29;;;;;;;;;;;7.40;99.90;;;;;;4992634;28;19966;-72
2022/03/29 05:37:55;;;;;;;;;;;7.30;99.90;;;;;;4991631;28;20394;-72
2022/03/29 05:40:21;;;;;;;;;;;7.40;99.90;;;;;;5008860;28;19925;-72
2022/03/29 05:42:47;;;;;;;;;;;7.40;99.90;;;;;;5008352;28;20489;-73
2022/03/29 05:45:13;;;;;;;;;;;7.40;99.90;;;;;;5010129;28;19924;-72
2022/03/29 05:50:24;;;;;;;;;;;7.50;99.90;;;;;;4992075;28;20286;-73
2022/03/29 05:52:49;;;;;;;;;;;7.50;99.90;;;;;;4995763;28;19932;-73
2022/03/29 05:55:15;;;;;;;;;;;7.50;99.90;;;;;;4995848;28;19917;-73
2022/03/29 05:57:41;;;;;;;;;;;7.50;99.90;;;;;;4995393;28;19940;-73
2022/03/29 06:00:10;;;;;;;;;;;7.50;99.90;;;;;;4994664;28;19922;-73
2022/03/29 06:02:36;;;;;;;;;;;7.50;99.90;;;;;;4992532;28;19917;-72
2022/03/29 06:05:02;;;;;;;;;;;7.50;99.90;;;;;;4995554;28;19922;-73
2022/03/29 06:07:28;;;;;;;;;;;7.60;99.90;;;;;;4995789;28;19979;-72
2022/03/29 06:09:53;;;;;;;;;;;7.70;99.90;;;;;;4995088;28;20392;-73
2022/03/29 06:12:20;;;;;;;;;;;7.60;99.90;;;;;;5013409;28;19983;-73
2022/03/29 06:14:46;;;;;;;;;;;7.60;99.90;;;;;;4994831;28;19968;-73
2022/03/29 06:17:11;;;;;;;;;;;7.60;99.90;;;;;;4995538;28;19917;-73
2022/03/29 06:19:37;;;;;;;;;;;7.60;99.90;;;;;;4993428;28;19968;-72
2022/03/29 06:22:03;;;;;;;;;;;7.60;99.90;;;;;;4995271;28;20007;-72
2022/03/29 06:24:30;;;;;;;;;;;7.60;99.90;;;;;;5013124;28;20417;-72
2022/03/29 06:26:55;;;;;;;;;;;7.60;99.90;;;;;;4994820;28;19964;-73
2022/03/29 06:29:21;;;;;;;;;;;7.50;99.90;;;;;;5011838;28;19925;-73
2022/03/29 06:31:46;;;;;;;;;;;7.50;99.90;;;;;;5012259;28;19925;-73
2022/03/29 06:34:13;;;;;;;;;;;7.40;99.90;;;;;;5012911;28;19917;-73
2022/03/29 06:36:38;;;;;;;;;;;7.50;99.90;;;;;;4994981;28;19928;-73
2022/03/29 06:39:04;;;;;;;;;;;7.40;99.90;;;;;;4995452;28;19917;-73
2022/03/29 06:41:30;;;;;;;;;;;7.40;99.90;;;;;;4995306;28;19917;-73
2022/03/29 06:43:56;;;;;;;;;;;7.40;99.90;;;;;;4994433;28;20047;-72
2022/03/29 06:46:22;;;;;;;;;;;7.40;99.90;;;;;;5011680;28;20464;-72
2022/03/29 06:48:47;;;;;;;;;;;7.40;99.90;;;;;;4993125;28;19918;-73
2022/03/29 06:51:13;;;;;;;;;;;7.40;99.90;;;;;;5012390;28;19924;-73
2022/03/29 06:53:42;;;;;;;;;;;7.50;99.90;;;;;;4992059;28;20313;-73
2022/03/29 06:56:07;;;;;;;;;;;7.50;99.90;;;;;;4993712;28;20008;-73
2022/03/29 06:58:34;;;;;;;;;;;7.50;99.90;;;;;;5011061;28;20076;-72
2022/03/29 07:00:59;;;;;;;;;;;7.50;99.90;;;;;;4993820;28;19924;-72
2022/03/29 07:03:25;;;;;;;;;;;7.50;99.90;;;;;;5010160;28;20369;-72
2022/03/29 07:05:50;;;;;;;;;;;7.60;99.90;;;;;;4993959;28;20020;-72
2022/03/29 07:08:18;;;;;;;;;;;7.50;99.90;;;;;;5011216;28;19972;-73
2022/03/29 07:13:28;;;;;;;;;;;7.60;99.90;;;;;;4994379;28;19921;-72
2022/03/29 07:15:54;;;;;;;;;;;7.60;99.90;;;;;;5010410;28;19921;-73
2022/03/29 07:18:19;;;;;;;;;;;7.60;99.90;;;;;;5010614;28;19925;-73
2022/03/29 07:20:45;;;;;;;;;;;7.60;99.90;;;;;;4993936;28;20016;-72
2022/03/29 07:23:11;;;;;;;;;;;7.70;99.90;;;;;;5010666;28;19924;-72
2022/03/29 07:25:37;;;;;;;;;;;7.80;99.90;;;;;;4993877;28;19921;-73
2022/03/29 07:28:03;;;;;;;;;;;7.80;99.90;;;;;;4992137;28;19924;-73
2022/03/29 07:30:29;;;;;;;;;;;7.70;99.90;;;;;;4992679;28;19924;-73
2022/03/29 07:32:57;;;;;;;;;;;7.80;99.90;;;;;;4993587;28;20809;-71
2022/03/29 07:35:24;;;;;;;;;;;7.90;99.90;;;;;;4994424;28;20003;-73
2022/03/29 07:37:50;;;;;;;;;;;8.00;99.90;;;;;;4993495;28;19921;-72
2022/03/29 07:40:16;;;;;;;;;;;8.00;99.90;;;;;;5010513;28;20297;-72
2022/03/29 07:42:42;;;;;;;;;;;8.10;99.90;;;;;;4993429;28;19917;-72
2022/03/29 07:45:11;;;;;;;;;;;8.20;99.90;;;;;;4993184;28;19918;-73
2022/03/29 07:47:37;;;;;;;;;;;8.30;99.90;;;;;;4993934;28;19921;-72
2022/03/29 07:50:06;;;;;;;;;;;8.40;99.90;;;;;;4992561;28;19925;-72
2022/03/29 07:52:35;;;;;;;;;;;8.50;99.90;;;;;;4994404;28;20125;-72
2022/03/29 07:55:02;;;;;;;;;;;8.60;99.90;;;;;;5010736;28;19956;-73
2022/03/29 07:57:28;;;;;;;;;;;8.70;99.90;;;;;;4993581;28;19923;-72
2022/03/29 07:59:53;;;;;;;;;;;8.80;99.90;;;;;;5009781;28;19940;-72
2022/03/29 08:02:19;;;;;;;;;;;8.80;99.90;;;;;;5009956;28;19924;-72
2022/03/29 08:04:44;;;;;;;;;;;9.00;99.90;;;;;;5009689;28;19921;-72
2022/03/29 08:07:10;;;;;;;;;;;9.10;99.90;;;;;;4977533;28;19917;-72
2022/03/29 08:09:35;;;;;;;;;;;9.20;99.90;;;;;;5009822;28;20018;-73
2022/03/29 08:12:01;;;;;;;;;;;9.10;99.90;;;;;;5009321;28;19929;-72
2022/03/29 08:14:26;;;;;;;;;;;9.10;99.90;;;;;;4993260;28;19983;-73
2022/03/29 08:16:53;;;;;;;;;;;9.20;99.90;;;;;;5010771;28;20511;-72
2022/03/29 08:19:22;;;;;;;;;;;9.20;99.90;;;;;;4993711;28;20004;-71
2022/03/29 08:21:49;;;;;;;;;;;9.10;99.90;;;;;;4992794;28;19924;-72
2022/03/29 08:24:15;;;;;;;;;;;9.20;99.90;;;;;;4993081;28;19979;-73
2022/03/29 08:26:41;;;;;;;;;;;9.10;99.90;;;;;;4991104;28;19957;-73
2022/03/29 08:29:08;;;;;;;;;;;9.10;99.90;;;;;;4992377;28;20357;-72
2022/03/29 08:31:34;;;;;;;;;;;9.20;99.90;;;;;;4993444;28;19922;-73
2022/03/29 08:33:59;;;;;;;;;;;9.20;99.90;;;;;;4991111;28;20396;-72
2022/03/29 08:36:25;;;;;;;;;;;9.10;99.90;;;;;;5009884;28;19972;-72
2022/03/29 08:38:50;;;;;;;;;;;9.20;99.90;;;;;;5008933;28;19921;-72
2022/03/29 08:41:16;;;;;;;;;;;9.20;99.90;;;;;;5009891;28;20401;-71
2022/03/29 08:43:42;;;;;;;;;;;9.10;99.90;;;;;;5009356;28;19917;-71
2022/03/29 08:46:08;;;;;;;;;;;9.00;99.90;;;;;;4993255;28;20307;-72
2022/03/29 08:48:33;;;;;;;;;;;9.00;99.90;;;;;;5009797;28;19967;-72
2022/03/29 08:51:00;;;;;;;;;;;9.00;99.90;;;;;;5010078;28;19924;-73
2022/03/29 08:53:28;;;;;;;;;;;9.00;99.90;;;;;;4993490;28;20285;-73
2022/03/29 08:55:53;;;;;;;;;;;9.20;99.90;;;;;;4992710;28;20342;-72
2022/03/29 08:58:21;;;;;;;;;;;9.10;99.90;;;;;;5010520;28;20013;-71
2022/03/29 09:00:48;;;;;;;;;;;9.10;99.90;;;;;;5009099;28;20464;-72
2022/03/29 09:03:15;;;;;;;;;;;9.20;99.90;;;;;;4992180;28;19964;-71
2022/03/29 09:05:41;;;;;;;;;;;9.20;99.90;;;;;;4990842;28;20215;-72
2022/03/29 09:08:11;;;;;;;;;;;9.20;99.90;;;;;;4992873;28;20301;-74
2022/03/29 09:10:45;;;;;;;;;;;9.20;99.90;;;;;;4992919;28;20000;-73
2022/03/29 09:13:22;;;;;;;;;;;9.10;99.90;;;;;;4993376;28;20289;-72
2022/03/29 09:15:48;;;;;;;;;;;9.10;99.90;;;;;;4991651;28;19917;-72
2022/03/29 09:18:14;;;;;;;;;;;9.20;99.90;;;;;;4991181;28;19918;-73
2022/03/29 09:20:40;;;;;;;;;;;9.20;99.90;;;;;;4993224;28;20005;-73
2022/03/29 09:23:11;;;;;;;;;;;9.30;99.90;;;;;;5009853;28;19921;-73
2022/03/29 09:25:38;;;;;;;;;;;9.40;99.90;;;;;;5012318;28;20075;-74
2022/03/29 09:28:05;;;;;;;;;;;9.60;99.90;;;;;;4996187;28;19918;-73
2022/03/29 09:30:41;;;;;;;;;;;9.80;99.90;;;;;;4996686;28;19929;-72
2022/03/29 09:33:12;;;;;;;;;;;9.80;99.90;;;;;;4995820;28;19929;-72
2022/03/29 09:35:52;;;;;;;;;;;9.80;99.90;;;;;;5013954;28;19971;-74
2022/03/29 09:38:24;;;;;;;;;;;10.00;99.90;;;;;;5012654;28;19918;-72
2022/03/29 09:40:50;;;;;;;;;;;10.30;99.90;;;;;;5013197;28;19925;-72
2022/03/29 09:43:15;;;;;;;;;;;10.70;99.90;;;;;;5013865;28;19925;-71
2022/03/29 09:45:42;;;;;;;;;;;11.00;99.90;;;;;;4995023;28;20008;-72
2022/03/29 09:48:25;;;;;;;;;;;11.10;99.90;;;;;;4995584;28;19961;-73
2022/03/29 09:51:17;;;;;;;;;;;11.30;99.90;;;;;;4995361;28;20016;-73
2022/03/29 09:53:43;;;;;;;;;;;11.60;99.90;;;;;;4993791;28;19922;-73
2022/03/29 09:56:10;;;;;;;;;;;11.50;99.90;;;;;;5011854;28;19928;-73
2022/03/29 09:58:36;;;;;;;;;;;11.50;99.90;;;;;;5013551;28;19918;-73
2022/03/29 10:01:02;;;;;;;;;;;11.60;99.90;;;;;;4995310;28;20048;-73
2022/03/29 10:03:28;;;;;;;;;;;11.50;99.90;;;;;;4995663;28;19924;-73
2022/03/29 10:06:01;;;;;;;;;;;11.50;99.90;;;;;;4995251;28;20373;-71
2022/03/29 10:11:16;;;;;;;;;;;11.30;99.90;;;;;;4993168;28;20333;-72
2022/03/29 10:13:42;;;;;;;;;;;11.50;99.90;;;;;;4995710;28;19921;-72
2022/03/29 10:16:12;;;;;;;;;;;11.30;99.90;;;;;;4995469;28;20421;-72
2022/03/29 10:18:39;;;;;;;;;;;11.30;99.90;;;;;;5011864;28;19922;-72
2022/03/29 10:21:05;;;;;;;;;;;11.30;99.90;;;;;;4994608;28;19972;-72
2022/03/29 10:23:31;;;;;;;;;;;11.50;99.90;;;;;;4995462;28;20008;-72
2022/03/29 10:25:58;;;;;;;;;;;11.20;99.90;;;;;;5011470;28;19968;-73
2022/03/29 10:28:27;;;;;;;;;;;11.10;99.90;;;;;;4995410;28;19924;-73
2022/03/29 10:30:53;;;;;;;;;;;11.10;99.90;;;;;;5011007;28;19924;-73
2022/03/29 10:33:23;;;;;;;;;;;11.10;99.90;;;;;;4995285;28;20293;-73
2022/03/29 10:36:07;;;;;;;;;;;11.10;99.90;;;;;;5011650;28;20380;-71
2022/03/29 10:38:48;;;;;;;;;;;11.30;99.90;;;;;;4995108;28;19917;-73
2022/03/29 10:41:26;;;;;;;;;;;11.40;99.90;;;;;;4994865;28;20004;-72
2022/03/29 10:43:52;;;;;;;;;;;11.30;99.90;;;;;;5011309;28;19925;-73
2022/03/29 10:46:25;;;;;;;;;;;11.40;99.90;;;;;;5012640;28;20456;-72
2022/03/29 10:49:09;;;;;;;;;;;11.50;99.90;;;;;;4995201;28;20286;-72
2022/03/29 10:51:34;;;;;;;;;;;11.70;99.90;;;;;;4993944;28;19928;-72
2022/03/29 10:54:23;;;;;;;;;;;11.60;99.90;;;;;;5011828;28;20004;-72
2022/03/29 10:56:55;;;;;;;;;;;11.70;99.90;;;;;;5012500;28;19996;-72
2022/03/29 10:59:21;;;;;;;;;;;11.60;99.90;;;;;;4994693;28;19917;-72
2022/03/29 11:02:05;;;;;;;;;;;11.70;99.90;;;;;;5010707;28;20396;-72
2022/03/29 11:04:31;;;;;;;;;;;12.00;99.90;;;;;;4991396;28;20001;-72
2022/03/29 11:07:06;;;;;;;;;;;11.90;99.90;;;;;;4992131;28;20005;-73
2022/03/29 11:09:35;;;;;;;;;;;12.00;99.90;;;;;;4975091;28;20036;-73
2022/03/29 11:12:01;;;;;;;;;;;12.10;99.90;;;;;;4990495;28;19936;-73
2022/03/29 11:14:27;;;;;;;;;;;11.90;99.90;;;;;;4991374;28;19925;-72
2022/03/29 11:16:53;;;;;;;;;;;11.80;99.90;;;;;;4975166;28;19973;-73
2022/03/29 11:19:56;;;;;;;;;;;11.90;99.90;;;;;;4990829;28;19969;-73
2022/03/29 11:22:21;;;;;;;;;;;11.80;99.90;;;;;;4897376;29;19923;-73
2022/03/29 11:24:54;;;;;;;;;;;11.90;99.90;;;;;;4943614;28;19924;-73
2022/03/29 11:27:26;;;;;;;;;;;11.90;99.90;;;;;;4991071;28;19917;-73
2022/03/29 11:29:52;;;;;;;;;;;11.80;99.90;;;;;;4972400;28;20353;-73
2022/03/29 11:32:18;;;;;;;;;;;12.00;99.90;;;;;;4990761;28;19968;-73
2022/03/29 11:34:44;;;;;;;;;;;12.00;99.90;;;;;;4990746;28;19918;-74
2022/03/29 11:37:29;;;;;;;;;;;11.80;99.90;;;;;;4990599;28;20017;-72
2022/03/29 11:39:56;;;;;;;;;;;11.90;99.90;;;;;;4989829;28;20357;-72
2022/03/29 11:42:21;;;;;;;;;;;12.00;99.90;;;;;;4974473;28;19918;-72
2022/03/29 11:44:47;;;;;;;;;;;12.10;99.90;;;;;;4990964;28;19976;-72
2022/03/29 11:47:13;;;;;;;;;;;12.30;99.90;;;;;;4990238;28;19918;-72
2022/03/29 11:49:40;;;;;;;;;;;12.30;99.90;;;;;;4990374;28;19918;-72
2022/03/29 11:52:13;;;;;;;;;;;12.40;99.90;;;;;;4990387;28;20439;-72
2022/03/29 11:54:43;;;;;;;;;;;12.20;99.90;;;;;;4974682;28;19917;-72
2022/03/29 11:57:16;;;;;;;;;;;12.10;99.90;;;;;;4989417;28;19918;-72
2022/03/29 11:59:42;;;;;;;;;;;11.90;99.90;;;;;;4990508;28;19917;-72
2022/03/29 12:02:08;;;;;;;;;;;11.80;99.90;;;;;;4973466;28;19925;-73
2022/03/29 12:04:36;;;;;;;;;;;11.50;99.90;;;;;;4974529;28;20358;-72
2022/03/29 12:07:02;;;;;;;;;;;11.60;99.90;;;;;;4972707;28;19941;-72
2022/03/29 12:09:27;;;;;;;;;;;11.60;99.90;;;;;;4990233;28;20020;-72
2022/03/29 12:11:54;;;;;;;;;;;11.40;99.90;;;;;;4973792;28;19961;-72
2022/03/29 12:14:21;;;;;;;;;;;11.40;99.90;;;;;;4989988;28;19922;-72
2022/03/29 12:16:48;;;;;;;;;;;11.50;99.90;;;;;;4971880;28;20422;-72
2022/03/29 12:19:15;;;;;;;;;;;11.70;99.90;;;;;;4991108;28;19968;-73
2022/03/29 12:21:42;;;;;;;;;;;11.70;99.90;;;;;;4989989;28;19932;-72
2022/03/29 12:24:08;;;;;;;;;;;11.70;99.90;;;;;;4989538;28;19924;-73
2022/03/29 12:26:38;;;;;;;;;;;11.60;99.90;;;;;;4990197;28;19924;-74
2022/03/29 12:29:07;;;;;;;;;;;11.40;99.90;;;;;;4990792;28;19918;-73
2022/03/29 12:31:34;;;;;;;;;;;11.30;99.90;;;;;;4973736;28;19922;-73
2022/03/29 12:34:00;;;;;;;;;;;11.20;99.90;;;;;;4990888;28;20000;-73
2022/03/29 12:36:26;;;;;;;;;;;11.10;99.90;;;;;;5009549;28;19996;-73
2022/03/29 12:38:53;;;;;;;;;;;11.10;99.90;;;;;;4993522;28;20357;-72
2022/03/29 12:41:37;;;;;;;;;;;11.20;99.90;;;;;;4992644;28;19979;-73
2022/03/29 12:44:04;;;;;;;;;;;11.30;99.90;;;;;;4992459;28;19921;-73
2022/03/29 12:46:30;;;;;;;;;;;11.40;99.90;;;;;;4992998;28;19975;-73
2022/03/29 12:48:56;;;;;;;;;;;11.40;99.90;;;;;;4992979;28;19953;-73
2022/03/29 12:51:27;;;;;;;;;;;11.80;99.90;;;;;;5009156;28;19922;-73
2022/03/29 12:53:59;;;;;;;;;;;11.90;99.90;;;;;;4993053;28;19921;-72
2022/03/29 12:56:36;;;;;;;;;;;12.00;99.90;;;;;;4992687;28;20023;-72
2022/03/29 12:59:22;;;;;;;;;;;12.40;99.90;;;;;;4992430;28;19924;-72
2022/03/29 13:01:47;;;;;;;;;;;12.80;99.90;;;;;;5012575;28;19921;-72
2022/03/29 13:04:13;;;;;;;;;;;12.80;99.90;;;;;;4996493;28;19928;-72
2022/03/29 13:06:39;;;;;;;;;;;12.80;99.90;;;;;;4996917;28;19925;-73
2022/03/29 13:09:05;;;;;;;;;;;12.70;99.90;;;;;;4996242;28;19924;-72
2022/03/29 13:11:31;;;;;;;;;;;12.70;99.90;;;;;;4996907;28;20290;-72
2022/03/29 13:14:03;;;;;;;;;;;12.60;99.90;;;;;;4996682;28;19921;-72
2022/03/29 13:16:29;;;;;;;;;;;12.90;99.90;;;;;;5014217;28;19961;-72
2022/03/29 13:18:54;;;;;;;;;;;13.50;99.90;;;;;;4996654;28;19968;-72
2022/03/29 13:21:22;;;;;;;;;;;13.80;99.90;;;;;;4996363;28;20326;-72
2022/03/29 13:23:49;;;;;;;;;;;14.20;99.90;;;;;;5013950;28;20030;-72
2022/03/29 13:26:19;;;;;;;;;;;14.40;99.90;;;;;;5012379;28;19917;-73
2022/03/29 13:28:46;;;;;;;;;;;14.40;99.90;;;;;;4996227;28;20004;-72
2022/03/29 13:31:15;;;;;;;;;;;14.40;99.90;;;;;;4960623;28;19917;-73
2022/03/29 13:33:45;;;;;;;;;;;14.20;99.90;;;;;;4993077;28;19921;-72
2022/03/29 13:36:12;;;;;;;;;;;14.20;99.90;;;;;;4992995;28;20427;-71
2022/03/29 13:38:38;;;;;;;;;;;13.90;99.90;;;;;;4993091;28;20015;-72
2022/03/29 13:41:04;;;;;;;;;;;13.50;99.90;;;;;;4994144;28;19981;-72
2022/03/29 13:43:31;;;;;;;;;;;12.90;99.90;;;;;;4993305;28;20017;-73
2022/03/29 13:45:57;;;;;;;;;;;12.60;99.90;;;;;;4977092;28;20378;-73
2022/03/29 13:48:22;;;;;;;;;;;12.70;99.90;;;;;;4976041;28;19925;-73
2022/03/29 13:50:48;;;;;;;;;;;12.80;99.90;;;;;;4976546;28;19928;-72
2022/03/29 13:53:15;;;;;;;;;;;12.80;99.90;;;;;;4975985;28;19976;-72
2022/03/29 13:55:40;;;;;;;;;;;12.70;99.90;;;;;;4993039;28;20268;-72
2022/03/29 13:58:07;;;;;;;;;;;12.70;99.90;;;;;;4992050;28;19929;-72
2022/03/29 14:00:36;;;;;;;;;;;12.60;99.90;;;;;;4992600;28;19926;-73
2022/03/29 14:03:02;;;;;;;;;;;12.70;99.90;;;;;;5004121;28;19921;-73
2022/03/29 14:05:31;;;;;;;;;;;12.80;99.90;;;;;;5012113;28;19941;-73
2022/03/29 14:07:57;;;;;;;;;;;12.90;99.90;;;;;;4993964;28;19939;-73
2022/03/29 14:10:23;;;;;;;;;;;12.90;99.90;;;;;;5011272;28;19963;-73
2022/03/29 14:12:49;;;;;;;;;;;12.90;99.90;;;;;;5009661;28;20377;-73
2022/03/29 14:15:15;;;;;;;;;;;12.90;99.90;;;;;;4995118;28;19917;-72
2022/03/29 14:17:40;;;;;;;;;;;12.60;99.90;;;;;;4995638;28;20016;-72
2022/03/29 14:20:06;;;;;;;;;;;12.30;99.90;;;;;;5011853;28;20429;-73
2022/03/29 14:22:32;;;;;;;;;;;12.20;99.90;;;;;;5011396;28;20064;-72
2022/03/29 14:25:02;;;;;;;;;;;12.30;99.90;;;;;;4995870;28;19964;-72
2022/03/29 14:27:28;;;;;;;;;;;12.30;99.90;;;;;;4993094;28;19922;-72
2022/03/29 14:29:54;;;;;;;;;;;12.20;99.90;;;;;;4995158;28;19925;-72
2022/03/29 14:32:20;;;;;;;;;;;12.10;99.90;;;;;;4995008;28;20399;-72
2022/03/29 14:34:47;;;;;;;;;;;12.10;99.90;;;;;;5013000;28;19925;-73
2022/03/29 14:37:13;;;;;;;;;;;12.30;99.90;;;;;;5011348;28;20008;-72